Terminal Aerodrome Forecast
Issued by NWS

Home | Current Version | Previous Version | Text Only | Print | Product List | Glossary On
Versions: 1 2 3 4 5 6 7 8 9 10 11 12 13 14 15 16 17 18 19 20 21
000
FTUS41 KALY 270700 AAA
TAFPSF
TAF AMD
KPSF 270700Z 2707/2806 31012G17KT P6SM SCT015 OVC040
      TEMPO 2707/2710 1SM -SN BR OVC015
     FM271000 30006KT P6SM VCSH OVC025
     FM272000 32006KT 2SM -SN BR SCT008 OVC014=

USA.gov is the U.S. government's official web portal to all federal, state and local government web resources and services.